• Join FlightAware (Why Join?)
  • Login
  • US Flag GB Flag 
15:14 EST


 

Airport Tracker/Info


-or-


 

Live Flight TrackerFlight Track Log ✈ EJM685 ✈ 01-Jul-2013 ✈ KSTP - KTEB

Flight Track Log - Related Links

Times and Time Zones

All times are in EDT time to prevent confusion due to time zone crossing. See the EJM685 flight status page for this flight to view local times or setup timezone preferences in your user account.

Time Position Orientation Groundspeed Altitude Reporting Facility
EDT Latitude Longitude Course Direction KTS MPH feet Rate Location/Type
14:57 44.9358 -92.9556 100° East 209 241 3,800  Level Minneapolis Center
14:58 44.9978 -92.8744 43° Northeast 254 292 8,700 3,656 Climbing Minneapolis Center
14:59 45.0081 -92.7708 82° East 286 329 11,600 1,734 Climbing Minneapolis Center
15:00 44.9492 -92.6872 135° Southeast 302 348 12,400 1,324 Climbing Minneapolis Center
15:01 44.8850 -92.6089 139° Southeast 304 350 14,600 1,897 Climbing Minneapolis Center
15:02 44.8061 -92.0390 100° East  Level Estimated
15:02 44.8114 -92.5181 139° Southeast 356 410 16,700  Level Minneapolis Center
15:04 44.6989 -92.3822 139° Southeast 379 436 20,700 3,088 Climbing Minneapolis Center
15:05 44.6136 -92.2786 139° Southeast 396 456 23,700 2,759 Climbing Minneapolis Center
15:06 44.5169 -92.1383 134° Southeast 417 480 27,000 2,277 Climbing Minneapolis Center
15:07 44.4461 -92.0003 126° Southeast 435 501 28,900 1,941 Climbing Minneapolis Center
15:08 44.3578 -91.8239 125° Southeast 459 528 31,400 2,274 Climbing Minneapolis Center
15:09 44.2969 -91.6619 118° Southeast 468 539 33,600 2,400 Climbing Minneapolis Center
15:10 44.2253 -91.4681 117° Southeast 472 543 36,400 2,208 Climbing Minneapolis Center
15:11 44.1631 -91.3092 119° Southeast 470 541 38,200 1,887 Climbing Minneapolis Center
15:12 44.0983 -91.1397 118° Southeast 475 547 40,300 1,935 Climbing Minneapolis Center
15:13 44.0389 -90.9844 118° Southeast 467 537 42,200 1,306 Climbing Minneapolis Center
15:14 43.9783 -90.8308 119° Southeast 458 527 43,000 797 Climbing Minneapolis Center
15:16 43.8922 -90.6131 119° Southeast 464 534 44,100 671 Climbing Chicago Center
15:17 43.8281 -90.4528 119° Southeast 476 548 44,600 400 Climbing Chicago Center
15:17 43.7950 -90.3694 119° Southeast 477 549 44,800 229 Climbing Minneapolis Center
15:18 43.7083 -90.1531 119° Southeast 482 555 45,000 97 Climbing Minneapolis Center
15:19 43.6439 -89.9933 119° Southeast 477 549 45,000  Level Minneapolis Center
15:20 43.5806 -89.8350 119° Southeast 473 544 45,000  Level Minneapolis Center
15:22 43.5439 -89.6611 106° East 484 557 45,000  Level Minneapolis Center
15:23 43.5253 -89.4475 97° East 480 552 45,000  Level Minneapolis Center
15:24 43.5106 -89.2650 96° East 479 551 45,000  Level Minneapolis Center
15:25 43.4947 -89.0831 97° East 479 551 45,000  Level Minneapolis Center
15:26 43.4811 -88.9311 97° East 479 551 45,000  Level Minneapolis Center
15:27 43.4625 -88.7158 97° East 483 556 45,000  Level Minneapolis Center
15:28 43.4450 -88.5125 97° East 488 562 45,000  Level Minneapolis Center
15:29 43.4214 -88.2606 97° East 490 564 45,000  Level Chicago Center
15:30 43.4042 -88.0772 97° East 485 558 45,000  Level Chicago Center
15:31 43.3864 -87.8958 98° East 479 551 45,000  Level Chicago Center
15:32 43.3658 -87.6831 97° East 483 556 45,000  Level Chicago Center
15:33 43.3481 -87.4989 97° East 486 559 45,000  Level Chicago Center
15:34 43.3306 -87.3169 97° East 488 562 45,000  Level Chicago Center
15:35 43.3125 -87.1344 98° East 485 558 45,000  Level Chicago Center
15:36 43.2925 -86.9522 99° East 484 557 45,000  Level Chicago Center
15:37 43.2728 -86.7703 98° East 483 556 45,000  Level Chicago Center
15:38 43.2539 -86.5881 98° East 482 555 45,000  Level Chicago Center
15:39 43.2300 -86.3672 98° East 487 560 45,000  Level Chicago Center
15:40 43.2086 -86.1822 99° East 488 562 45,000  Level Chicago Center
15:41 43.1875 -86.0767 99° East  Level FlightAware Approximate
15:41 43.1864 -85.9942 99° East 490 564 45,000  Level Chicago Center
15:42 43.1628 -85.8053 100° East 490 564 45,000  Level Chicago Center
15:44 43.1386 -85.6253 100° East 480 552 45,000  Level Chicago Center
15:45 43.1158 -85.4450 100° East 477 549 45,000  Level Chicago Center
15:46 43.0925 -85.2650 100° East 479 551 45,000  Level Chicago Center
15:48 43.0447 -84.9011 100° East 485 558 45,000  Level Chicago Center
15:49 43.0158 -84.6839 100° East 484 557 45,000  Level Chicago Center
15:50 42.9917 -84.5039 100° East 484 557 45,000  Level Chicago Center
15:51 42.9661 -84.3242 101° East 482 555 45,000  Level Chicago Center
15:52 42.9425 -84.1411 100° East 487 560 45,000  Level Chicago Center
15:53 42.9167 -83.9825 102° East 474 545 45,000  Level Cleveland Center
15:54 42.8906 -83.8025 101° East 479 551 45,000  Level Cleveland Center
15:55 42.8661 -83.6200 100° East 479 551 45,000  Level Cleveland Center
15:56 42.8375 -83.4372 102° East 485 558 45,000  Level Cleveland Center
15:57 42.8144 -83.2750 101° East 485 558 45,000  Level Cleveland Center
15:58 42.7853 -83.0897 102° East 490 564 45,000  Level Cleveland Center
15:59 42.7575 -82.9133 102° East 484 557 45,000  Level Cleveland Center
16:00 42.7297 -82.7314 102° East 484 557 45,000  Level Cleveland Center
16:01 42.7019 -82.5494 102° East 484 557 45,000  Level Cleveland Center
16:02 42.6736 -82.3708 102° East 489 563 45,000  Level Cleveland Center
16:03 42.6447 -82.1922 102° East 489 563 45,000  Level Cleveland Center
16:04 42.6161 -82.0108 102° East 489 563 45,000  Level Cleveland Center
16:05 42.5911 -81.8242 100° East 489 563 45,000  Level Cleveland Center
16:06 42.5658 -81.6347 100° East 494 568 45,000  Level Cleveland Center
16:07 42.5403 -81.4511 101° East 504 580 45,000  Level Cleveland Center
16:08 42.5125 -81.2422 100° East 511 588 45,000  Level Cleveland Center
16:09 42.4842 -81.0533 101° East 511 588 45,000  Level Cleveland Center
16:10 42.4578 -80.8617 101° East 509 586 45,000  Level Cleveland Center
16:11 42.4353 -80.6731 99° East 509 586 45,000  Level Cleveland Center
16:12 42.4372 -80.4792 89° East 501 577 45,000 -550 Level Cleveland Center
16:13 42.4453 -80.2878 87° East 506 582 43,900 -1,210 Descending Cleveland Center
16:14 42.4531 -80.0936 87° East 517 595 42,600 -1,250 Descending Cleveland Center
16:15 42.4583 -79.9275 87° East 504 580 41,400 -1,300 Descending Cleveland Center
16:16 42.4653 -79.7192 87° East 499 574 40,000 -1,200 Descending Cleveland Center
16:17 42.4742 -79.5192 86° East 511 588 39,000 -496 Descending Cleveland Center
16:18 42.4761 -79.3164 89° East 523 602 39,000  Level Cleveland Center
16:19 42.4822 -79.1164 88° East 530 610 39,000 -504 Level Cleveland Center
16:20 42.4878 -78.9164 88° East 535 616 38,000 -958 Descending Cleveland Center
16:21 42.4908 -78.7136 89° East 535 616 37,100 -1,000 Descending Cleveland Center
16:22 42.4958 -78.5106 88° East 535 616 36,000 -1,650 Descending Cleveland Center
16:23 42.4983 -78.3106 89° East 535 616 33,800 -2,500 Descending Cleveland Center
16:24 42.5028 -78.1161 88° East 535 616 31,000 -2,250 Descending Cleveland Center
16:25 42.5044 -77.9131 89° East 535 616 29,300 -1,000 Descending Cleveland Center
16:26 42.5100 -77.7186 88° East 535 616 29,000 -150 Descending Cleveland Center
16:27 42.5092 -77.5158 90° East 535 616 29,000 -100 Level Cleveland Center
16:28 42.5122 -77.3297 89° East 540 621 28,800 -650 Descending Cleveland Center
16:29 42.5147 -77.1294 89° East 535 616 27,700 -587 Descending Cleveland Center
16:31 42.5164 -76.6997 90° East 523 602 27,000 -228 Descending Boston Center
16:32 42.5156 -76.4967 90° East 533 613 27,000  Level Boston Center
16:33 42.5056 -76.3044 94° East 533 613 27,000 -300 Level Boston Center
16:34 42.4444 -76.1375 116° Southeast 493 567 26,400 -1,150 Descending Boston Center
16:35 42.3700 -75.9842 123° Southeast 488 562 24,700 -1,750 Descending Boston Center
16:36 42.3019 -75.8286 121° Southeast 483 556 22,900 -1,800 Descending Boston Center
16:37 42.2331 -75.6819 122° Southeast 483 556 21,100 -1,563 Descending Boston Center
16:38 42.1822 -75.5672 121° Southeast 471 542 19,800 -1,600 Descending Boston Center
16:39 42.1072 -75.4067 122° Southeast 450 518 17,900 -1,388 Descending Boston Center
16:40 42.0503 -75.2725 120° Southeast 423 487 17,000 -450 Descending Boston Center
16:41 41.9972 -75.1386 118° Southeast 411 473 17,000  Level Boston Center
16:42 41.9503 -75.0139 117° Southeast 406 467 17,000 -250 Level Boston Center
16:43 41.8931 -74.8664 117° Southeast 406 467 16,500 -800 Descending Boston Center
16:44 41.8494 -74.7506 117° Southeast 392 451 15,400 -1,500 Descending Boston Center
16:45 41.7961 -74.6122 117° Southeast 379 436 13,500 -1,950 Descending Boston Center
16:46 41.7283 -74.5486 145° Southeast 339 390 11,500 -1,550 Descending Boston Center
16:47 41.6367 -74.5483 180° South 304 350 10,400 -1,050 Descending Boston Center
16:48 41.5719 -74.5628 189° South 285 328 9,400 -1,000 Descending Boston Center
16:49 41.4942 -74.5853 192° South 269 310 8,400 -1,000 Descending Boston Center
16:50 41.4575 -74.6589 236° Southwest 250 288 7,400 -700 Descending Boston Center
16:51 41.4222 -74.7489 242° Southwest 255 293 7,000 -107 Descending Boston Center
16:52 41.3333 -74.8167 210° Southwest 257 296 7,100 -36 Climbing New York TRACON
16:53 41.2500 -74.8167 130° Southeast 256 295 6,900 -500 Descending New York TRACON
16:54 41.2472 -74.6806 130° Southeast  Level Estimated
16:54 41.1833 -74.8167 180° South 254 292 6,100  Level New York TRACON
16:55 41.1333 -74.7833 153° Southeast 266 306 5,600 -800 Descending New York TRACON
16:56 41.1167 -74.6833 102° East 276 318 4,500 -645 Descending New York TRACON
16:59 41.0833 -74.4833 102° East 262 302 3,600 -452 Descending New York TRACON
17:00 41.0667 -74.3833 102° East 258 297 3,100 -250 Descending New York TRACON
17:01 41.0667 -74.3000 90° East 254 292 3,100  Level New York TRACON
17:02 41.0667 -74.2167 90° East 204 235 3,100 -50 Level New York TRACON
17:03 41.0667 -74.1500 90° East 191 220 3,000 -368 Descending New York TRACON
17:04 41.0667 -74.0833 90° East 191 220 2,400 -429 Descending New York TRACON
17:05 41.0167 -74.0500 153° Southeast 182 209 2,100 -143 Descending New York TRACON
17:06 40.9667 -74.0500 180° South 172 198 2,100 -300 Level New York TRACON
17:07 40.9333 -74.0500 180° South 157 181 1,500 -600 Descending New York TRACON